ESGG/GOT METAR and TAF weather

Enter ICAO airport designator
Station Type Date Time Source
ESGG METAR 2020/03/31 21:50 UTC NOAA

ESGG 312150Z 25011KT 9999 OVC007 04/02 Q1015 R21/09//95


Station Type Date Time Source
ESGG Decoded METAR 2020/03/31 21:50 UTC NOAA

Goteborg / Landvetter, Sweden (ESGG) 57-40N 012-18E
Mar 31, 2020 - 05:50 PM EDT / 2020.03.31 2150 UTC
Wind: from the WSW (250 degrees) at 13 MPH (11 KT):0
Visibility: greater than 7 mile(s):0
Sky conditions: overcast
Temperature: 39 F (4 C)
Dew Point: 35 F (2 C)
Relative Humidity: 86%
Pressure (altimeter): 29.97 in. Hg (1015 hPa)
ob: ESGG 312150Z 25011KT 9999 OVC007 04/02 Q1015 R21/09//95
cycle: 22

Station Type Date Time Source
ESGG TAF 2020/03/31 18:15 UTC NOAA

TAF TAF ESGG 311730Z 3118/0118 25015G25KT 9999 BKN013
BECMG 3118/3120 26010KT BKN007 PROB40 3120/0108 SCT010
BECMG 0108/0110 SCT015
BECMG 0110/0112 27015G25KT

Example: see airport list